createdAt,value
2019-03-22T00:01:03.714Z,99449.86
2019-03-22T00:03:39.364Z,99454.17
2019-03-22T00:06:10.293Z,99449.36
2019-03-22T00:08:41.141Z,99451.20
2019-03-22T00:11:12.152Z,99446.91
2019-03-22T00:13:43.141Z,99446.58
2019-03-22T00:16:15.410Z,99449.05
2019-03-22T00:18:48.558Z,99443.02
2019-03-22T00:21:19.222Z,99439.30
2019-03-22T00:23:50.221Z,99439.30
2019-03-22T00:26:21.143Z,99441.34
2019-03-22T00:28:54.276Z,99440.32
2019-03-22T00:31:24.912Z,99441.22
2019-03-22T00:33:55.820Z,99436.84
2019-03-22T00:36:26.640Z,99436.61
2019-03-22T00:38:57.664Z,99429.44
2019-03-22T00:41:28.942Z,99437.02
2019-03-22T00:44:00.125Z,99428.94
2019-03-22T00:46:33.374Z,99434.54
2019-03-22T00:49:05.660Z,99432.47
2019-03-22T00:51:38.071Z,99431.45
2019-03-22T00:54:11.941Z,99435.02
2019-03-22T00:56:45.392Z,99430.70
2019-03-22T00:59:16.497Z,99424.86
2019-03-22T01:01:47.236Z,99419.55
2019-03-22T01:04:17.962Z,99417.17
2019-03-22T01:06:49.315Z,99422.13
2019-03-22T01:09:20.106Z,99420.88
2019-03-22T01:11:50.882Z,99422.38
2019-03-22T01:14:22.028Z,99419.84
2019-03-22T01:16:53.208Z,99419.22
2019-03-22T01:19:24.501Z,99423.63
2019-03-22T01:21:55.492Z,99412.78
2019-03-22T01:24:26.857Z,99406.20
2019-03-22T01:26:57.627Z,99409.34
2019-03-22T01:29:29.021Z,99406.36
2019-03-22T01:31:59.893Z,99404.14
2019-03-22T01:34:30.700Z,99404.23
2019-03-22T01:37:04.575Z,99400.02
2019-03-22T01:39:34.496Z,99402.03
2019-03-22T01:42:10.061Z,99394.67
2019-03-22T01:44:41.240Z,99397.95
2019-03-22T01:47:12.096Z,99396.62
2019-03-22T01:49:42.977Z,99399.13
2019-03-22T01:52:13.761Z,99394.91
2019-03-22T01:54:44.681Z,99395.83
2019-03-22T01:57:15.796Z,99404.19
2019-03-22T01:59:46.611Z,99404.52
2019-03-22T02:02:17.352Z,99401.02
2019-03-22T02:04:48.761Z,99407.20
2019-03-22T02:07:19.607Z,99401.55
2019-03-22T02:09:50.685Z,99402.97
2019-03-22T02:12:21.582Z,99397.53
2019-03-22T02:14:55.503Z,99387.82
2019-03-22T02:17:26.773Z,99389.50
2019-03-22T02:20:02.264Z,99389.50
2019-03-22T02:22:33.193Z,99390.41
2019-03-22T02:25:05.826Z,99394.31
2019-03-22T02:27:36.956Z,99397.14
2019-03-22T02:30:08.040Z,99384.45
2019-03-22T02:32:40.535Z,99391.09
2019-03-22T02:35:27.440Z,99387.93
2019-03-22T02:37:46.309Z,99392.71
2019-03-22T02:40:17.875Z,99392.63
2019-03-22T02:42:48.727Z,99390.59
2019-03-22T02:45:19.776Z,99385.27
2019-03-22T02:47:51.300Z,99383.28
2019-03-22T02:50:22.575Z,99390.02
2019-03-22T02:52:53.248Z,99382.75
2019-03-22T02:55:24.148Z,99382.29
2019-03-22T02:57:57.690Z,99377.85
2019-03-22T03:00:31.152Z,99379.89
2019-03-22T03:03:02.114Z,99388.11
2019-03-22T03:05:32.854Z,99385.20
2019-03-22T03:08:03.824Z,99391.01
2019-03-22T03:10:34.692Z,99389.98
2019-03-22T03:13:05.753Z,99396.56
2019-03-22T03:15:36.442Z,99391.34
2019-03-22T03:18:07.456Z,99396.52
2019-03-22T03:20:38.254Z,99400.70
2019-03-22T03:23:08.957Z,99399.13
2019-03-22T03:25:42.003Z,99392.57
2019-03-22T03:28:12.856Z,99390.98
2019-03-22T03:30:44.959Z,99392.02
2019-03-22T03:33:15.956Z,99392.72
2019-03-22T03:35:47.243Z,99392.59
2019-03-22T03:38:20.034Z,99389.73
2019-03-22T03:40:53.827Z,99388.69
2019-03-22T03:43:24.541Z,99396.70
2019-03-22T03:45:55.303Z,99394.05
2019-03-22T03:48:26.178Z,99400.35
2019-03-22T03:50:56.956Z,99402.14
2019-03-22T03:53:29.374Z,99401.52
2019-03-22T03:56:00.522Z,99400.05
2019-03-22T03:58:31.218Z,99400.05
2019-03-22T04:01:02.011Z,99408.80
2019-03-22T04:03:33.009Z,99413.40
2019-03-22T04:06:04.106Z,99414.97
2019-03-22T04:08:35.073Z,99417.06
2019-03-22T04:11:05.828Z,99413.66
2019-03-22T04:13:36.831Z,99418.33
2019-03-22T04:16:07.548Z,99419.73
2019-03-22T04:18:38.283Z,99419.53
2019-03-22T04:21:09.100Z,99425.80
2019-03-22T04:23:39.904Z,99416.51
2019-03-22T04:26:10.741Z,99413.79
2019-03-22T04:28:41.798Z,99420.45
2019-03-22T04:31:13.031Z,99417.51
2019-03-22T04:33:46.861Z,99426.36
2019-03-22T04:36:17.570Z,99429.08
2019-03-22T04:38:48.648Z,99429.74
2019-03-22T04:41:19.646Z,99421.29
2019-03-22T04:43:51.009Z,99421.72
2019-03-22T04:46:22.233Z,99422.41
2019-03-22T04:48:53.992Z,99424.38
2019-03-22T04:51:25.927Z,99425.70
2019-03-22T04:54:02.403Z,99430.94
2019-03-22T04:56:34.450Z,99427.85
2019-03-22T04:59:14.174Z,99420.45
2019-03-22T05:01:40.289Z,99417.44
2019-03-22T05:04:11.560Z,99424.23
2019-03-22T05:06:44.401Z,99423.80
2019-03-22T05:09:16.564Z,99429.67
2019-03-22T05:11:48.708Z,99424.77
2019-03-22T05:14:20.063Z,99435.38
2019-03-22T05:16:51.767Z,99434.34
2019-03-22T05:19:24.320Z,99431.34
2019-03-22T05:21:55.768Z,99439.02
2019-03-22T05:24:27.098Z,99444.95
2019-03-22T05:26:59.666Z,99441.86
2019-03-22T05:29:32.507Z,99447.58
2019-03-22T05:32:09.837Z,99451.70
2019-03-22T05:34:43.615Z,99447.22
2019-03-22T05:37:14.752Z,99442.36
2019-03-22T05:39:45.612Z,99446.08
2019-03-22T05:42:16.641Z,99445.52
2019-03-22T05:44:49.689Z,99448.88
2019-03-22T05:47:23.387Z,99449.14
2019-03-22T05:49:55.751Z,99450.90
2019-03-22T05:52:26.762Z,99448.02
2019-03-22T05:54:57.914Z,99449.08
2019-03-22T05:57:28.979Z,99452.13
2019-03-22T06:00:00.429Z,99459.81
2019-03-22T06:02:31.335Z,99446.94
2019-03-22T06:05:02.599Z,99454.06
2019-03-22T06:07:38.173Z,99457.37
2019-03-22T06:10:09.104Z,99456.94
2019-03-22T06:12:40.439Z,99453.94
2019-03-22T06:15:14.202Z,99454.89
2019-03-22T06:17:51.557Z,99461.66
2019-03-22T06:20:17.725Z,99456.44
2019-03-22T06:22:48.618Z,99460.93
2019-03-22T06:25:19.336Z,99466.57
2019-03-22T06:27:56.275Z,99459.98
2019-03-22T06:30:30.297Z,99469.66
2019-03-22T06:33:01.406Z,99462.78
2019-03-22T06:35:32.380Z,99464.50
2019-03-22T06:38:03.512Z,99466.72
2019-03-22T06:40:34.455Z,99458.04
2019-03-22T06:43:05.932Z,99458.17
2019-03-22T06:45:38.865Z,99456.50
2019-03-22T06:48:10.261Z,99461.22
2019-03-22T06:50:48.451Z,99461.91
2019-03-22T06:53:22.373Z,99464.41
2019-03-22T06:55:53.380Z,99464.41
2019-03-22T06:58:27.652Z,99456.22
2019-03-22T07:01:00.194Z,99463.78
2019-03-22T07:03:33.777Z,99468.89
2019-03-22T07:06:04.886Z,99470.45
2019-03-22T07:08:36.152Z,99470.57
2019-03-22T07:11:07.182Z,99471.88
2019-03-22T07:13:38.148Z,99473.61
2019-03-22T07:16:09.448Z,99478.48
2019-03-22T07:18:40.613Z,99482.16
2019-03-22T07:21:12.084Z,99484.17
2019-03-22T07:23:43.169Z,99478.62
2019-03-22T07:26:14.110Z,99480.53
2019-03-22T07:28:45.352Z,99478.24
2019-03-22T07:31:16.250Z,99480.82
2019-03-22T07:33:48.127Z,99473.69
2019-03-22T07:36:19.148Z,99482.72
2019-03-22T07:38:50.449Z,99482.90
2019-03-22T07:41:21.478Z,99475.59
2019-03-22T07:43:52.705Z,99476.19
2019-03-22T07:46:23.802Z,99476.45
2019-03-22T07:48:54.967Z,99472.84
2019-03-22T07:51:27.467Z,99467.84
2019-03-22T07:53:58.479Z,99472.36
2019-03-22T07:56:29.537Z,99466.98
2019-03-22T07:59:03.723Z,99443.51
2019-03-22T08:01:34.802Z,99443.51
2019-03-22T08:04:06.808Z,99444.36
2019-03-22T08:06:37.849Z,99438.81
2019-03-22T08:09:11.027Z,99437.61
2019-03-22T08:11:42.369Z,99438.88
2019-03-22T08:14:16.922Z,99435.78
2019-03-22T08:16:48.030Z,99431.97
2019-03-22T08:19:19.011Z,99434.66
2019-03-22T08:21:50.401Z,99437.77
2019-03-22T08:24:21.528Z,99432.99
2019-03-22T08:26:52.862Z,99429.48
2019-03-22T08:29:24.208Z,99426.80
2019-03-22T08:31:55.502Z,99419.11
2019-03-22T08:34:26.867Z,99417.66
2019-03-22T08:36:58.028Z,99414.61
2019-03-22T08:39:30.177Z,99412.53
2019-03-22T08:42:01.539Z,99411.09
2019-03-22T08:44:32.889Z,99411.20
2019-03-22T08:47:05.742Z,99413.38
2019-03-22T08:49:40.287Z,99405.23
2019-03-22T08:52:11.650Z,99403.83
2019-03-22T08:54:42.915Z,99405.91
2019-03-22T08:57:15.624Z,99401.81
2019-03-22T08:59:47.256Z,99389.61
2019-03-22T09:02:18.564Z,99390.81
2019-03-22T09:04:49.678Z,99394.62
2019-03-22T09:07:24.448Z,99383.11
2019-03-22T09:09:55.890Z,99385.08
2019-03-22T09:12:27.062Z,99386.56
2019-03-22T09:15:02.332Z,99387.29
2019-03-22T09:17:33.365Z,99389.68
2019-03-22T09:20:07.488Z,99376.41
2019-03-22T09:22:39.157Z,99381.98
2019-03-22T09:25:10.492Z,99380.55
2019-03-22T09:27:41.520Z,99377.34
2019-03-22T09:30:12.996Z,99377.77
2019-03-22T09:32:44.078Z,99375.95
2019-03-22T09:35:15.439Z,99379.23
2019-03-22T09:37:47.049Z,99377.52
2019-03-22T09:40:20.872Z,99362.34
2019-03-22T09:42:53.140Z,99376.62
2019-03-22T09:45:24.401Z,99372.45
2019-03-22T09:47:55.919Z,99375.61
2019-03-22T09:50:26.809Z,99368.17
2019-03-22T09:52:57.605Z,99365.82
2019-03-22T09:55:28.533Z,99367.61
2019-03-22T09:57:59.277Z,99365.44
2019-03-22T10:00:35.432Z,99365.02
2019-03-22T10:03:06.473Z,99361.37
2019-03-22T10:05:37.431Z,99360.63
2019-03-22T10:08:08.251Z,99356.03
2019-03-22T10:10:39.665Z,99350.02
2019-03-22T10:13:11.098Z,99342.04
2019-03-22T10:15:41.872Z,99339.69
2019-03-22T10:18:13.015Z,99329.98
2019-03-22T10:20:47.371Z,99333.13
2019-03-22T10:23:22.394Z,99332.55
2019-03-22T10:25:53.095Z,99331.95
2019-03-22T10:28:24.987Z,99325.63
2019-03-22T10:30:55.724Z,99329.95
2019-03-22T10:33:28.268Z,99320.86
2019-03-22T10:35:59.288Z,99316.28
2019-03-22T10:38:32.055Z,99318.75
2019-03-22T10:41:03.587Z,99307.42
2019-03-22T10:43:34.354Z,99313.23
2019-03-22T10:46:07.859Z,99306.91
2019-03-22T10:48:43.318Z,99313.91
2019-03-22T10:51:14.391Z,99308.86
2019-03-22T10:53:47.295Z,99307.72
2019-03-22T10:56:17.739Z,99305.86
2019-03-22T10:58:48.510Z,99295.09
2019-03-22T11:01:21.283Z,99298.72
2019-03-22T11:03:52.942Z,99303.36
2019-03-22T11:06:26.366Z,99298.55
2019-03-22T11:08:56.579Z,99308.13
2019-03-22T11:11:27.600Z,99302.45
2019-03-22T11:13:58.703Z,99307.05
2019-03-22T11:16:31.484Z,99305.23
2019-03-22T11:19:02.208Z,99304.09
2019-03-22T11:21:34.742Z,99297.97
2019-03-22T11:24:05.401Z,99288.72
2019-03-22T11:26:36.701Z,99297.86
2019-03-22T11:29:07.589Z,99290.66
2019-03-22T11:31:40.175Z,99293.98
2019-03-22T11:34:11.633Z,99293.70
2019-03-22T11:36:42.862Z,99288.95
2019-03-22T11:39:15.708Z,99285.32
2019-03-22T11:41:46.555Z,99286.67
2019-03-22T11:44:19.579Z,99288.41
2019-03-22T11:46:50.118Z,99277.94
2019-03-22T11:49:19.712Z,99278.35
2019-03-22T11:51:49.169Z,99273.69
2019-03-22T11:54:20.413Z,99276.05
2019-03-22T11:56:54.319Z,99275.50
2019-03-22T11:59:25.243Z,99267.51
2019-03-22T12:01:56.136Z,99268.65
2019-03-22T12:04:27.119Z,99263.84
2019-03-22T12:06:58.239Z,99269.84
2019-03-22T12:09:29.420Z,99257.98
2019-03-22T12:12:00.211Z,99253.55
2019-03-22T12:14:31.304Z,99253.06
2019-03-22T12:17:04.839Z,99253.16
2019-03-22T12:19:35.643Z,99249.61
2019-03-22T12:22:06.961Z,99246.87
2019-03-22T12:24:37.916Z,99241.38
2019-03-22T12:27:09.311Z,99235.12
2019-03-22T12:29:40.233Z,99238.70
2019-03-22T12:32:14.566Z,99228.48
2019-03-22T12:34:48.130Z,99234.83
2019-03-22T12:37:20.303Z,99234.37
2019-03-22T12:39:51.203Z,99233.70
2019-03-22T12:42:22.341Z,99236.63
2019-03-22T12:44:53.418Z,99229.25
2019-03-22T12:47:29.527Z,99230.75
2019-03-22T12:50:00.499Z,99225.61
2019-03-22T12:52:31.491Z,99227.71
2019-03-22T12:55:02.224Z,99222.70
2019-03-22T12:57:31.956Z,99211.66
2019-03-22T13:00:01.838Z,99211.70
2019-03-22T13:02:31.536Z,99203.44
2019-03-22T13:05:02.638Z,99202.47
2019-03-22T13:07:33.768Z,99198.34
2019-03-22T13:10:05.884Z,99193.78
2019-03-22T13:12:37.293Z,99196.20
2019-03-22T13:15:06.932Z,99187.88
2019-03-22T13:17:38.041Z,99190.56
2019-03-22T13:20:09.828Z,99182.88
2019-03-22T13:22:39.463Z,99184.95
2019-03-22T13:25:10.551Z,99180.84
2019-03-22T13:27:44.327Z,99184.95
2019-03-22T13:30:21.373Z,99182.02
2019-03-22T13:32:52.458Z,99180.97
2019-03-22T13:35:22.201Z,99177.01
2019-03-22T13:37:53.189Z,99176.73
2019-03-22T13:40:24.226Z,99169.96
2019-03-22T13:42:55.298Z,99166.42
2019-03-22T13:45:24.882Z,99165.80
2019-03-22T13:47:54.672Z,99165.80
2019-03-22T13:50:24.258Z,99167.24
2019-03-22T13:52:54.991Z,99160.02
2019-03-22T13:55:25.969Z,99161.72
2019-03-22T13:57:57.233Z,99153.47
2019-03-22T14:00:30.906Z,99143.00
2019-03-22T14:03:04.971Z,99146.52
2019-03-22T14:05:38.757Z,99143.91
2019-03-22T14:08:10.294Z,99146.33
2019-03-22T14:10:41.397Z,99142.91
2019-03-22T14:13:14.265Z,99149.72
2019-03-22T14:15:45.269Z,99139.31
2019-03-22T14:18:16.108Z,99135.95
2019-03-22T14:20:47.106Z,99138.25
2019-03-22T14:23:19.945Z,99135.25
2019-03-22T14:25:53.426Z,99128.59
2019-03-22T14:28:26.115Z,99126.06
2019-03-22T14:30:57.013Z,99121.85
2019-03-22T14:33:28.391Z,99113.82
2019-03-22T14:35:59.571Z,99116.70
2019-03-22T14:38:33.215Z,99112.95
2019-03-22T14:41:04.253Z,99108.07
2019-03-22T14:43:35.425Z,99101.92
2019-03-22T14:46:08.478Z,99101.16
2019-03-22T14:48:39.646Z,99097.14
2019-03-22T14:51:10.652Z,99089.75
2019-03-22T14:53:41.908Z,99089.61
2019-03-22T14:56:13.028Z,99086.80
2019-03-22T14:58:44.293Z,99081.05
2019-03-22T15:01:15.571Z,99087.13
2019-03-22T15:03:45.279Z,99084.96
2019-03-22T15:06:16.685Z,99084.91
2019-03-22T15:08:47.729Z,99085.91
2019-03-22T15:11:19.658Z,99079.50
2019-03-22T15:14:08.520Z,99083.16
2019-03-22T15:16:52.295Z,99071.48
2019-03-22T15:19:42.603Z,99071.72
2019-03-22T15:22:23.327Z,99066.64
2019-03-22T15:25:12.391Z,99075.09
2019-03-22T15:28:01.813Z,99076.38
2019-03-22T15:30:50.760Z,99069.54
2019-03-22T15:33:46.936Z,99064.29
2019-03-22T15:36:52.112Z,99066.25
2019-03-22T15:39:41.143Z,99066.40
2019-03-22T15:42:12.132Z,99064.27
2019-03-22T15:44:43.617Z,99068.12
2019-03-22T15:47:14.701Z,99062.36
2019-03-22T15:49:45.875Z,99057.76
2019-03-22T15:52:17.139Z,99058.58
2019-03-22T15:54:48.286Z,99053.93
2019-03-22T15:57:19.304Z,99062.48
2019-03-22T15:59:50.275Z,99070.89
2019-03-22T16:02:22.355Z,99066.66
2019-03-22T16:04:53.267Z,99061.36
2019-03-22T16:07:24.693Z,99065.16
2019-03-22T16:09:55.762Z,99062.26
2019-03-22T16:12:26.989Z,99059.70
2019-03-22T16:14:58.502Z,99061.73
2019-03-22T16:17:30.734Z,99062.58
2019-03-22T16:20:01.748Z,99064.80
2019-03-22T16:22:33.824Z,99063.91
2019-03-22T16:25:05.849Z,99063.50
2019-03-22T16:27:37.865Z,99064.14
2019-03-22T16:30:09.270Z,99060.98
2019-03-22T16:32:40.390Z,99063.41
2019-03-22T16:35:12.676Z,99057.63
2019-03-22T16:37:43.834Z,99056.78
2019-03-22T16:40:23.890Z,99062.02
2019-03-22T16:42:49.024Z,99051.08
2019-03-22T16:45:38.471Z,99051.00
2019-03-22T16:48:10.553Z,99052.23
2019-03-22T16:50:41.830Z,99043.86
2019-03-22T16:53:13.135Z,99050.61
2019-03-22T16:55:44.126Z,99052.38
2019-03-22T16:58:15.383Z,99053.45
2019-03-22T17:00:46.835Z,99051.17
2019-03-22T17:03:17.898Z,99046.98
2019-03-22T17:05:49.375Z,99048.28
2019-03-22T17:08:20.419Z,99055.20
2019-03-22T17:10:51.506Z,99054.27
2019-03-22T17:13:22.637Z,99060.26
2019-03-22T17:15:53.722Z,99061.42
2019-03-22T17:18:24.727Z,99063.78
2019-03-22T17:20:55.850Z,99067.00
2019-03-22T17:23:26.724Z,99064.51
2019-03-22T17:25:57.716Z,99067.41
2019-03-22T17:28:28.727Z,99073.48
2019-03-22T17:30:59.452Z,99075.47
2019-03-22T17:33:30.761Z,99079.29
2019-03-22T17:36:02.223Z,99080.33
2019-03-22T17:38:34.304Z,99077.75
2019-03-22T17:41:05.533Z,99083.56
2019-03-22T17:43:36.715Z,99083.70
2019-03-22T17:46:07.845Z,99081.63
2019-03-22T17:48:38.960Z,99079.54
2019-03-22T17:51:10.185Z,99075.47
2019-03-22T17:53:41.405Z,99075.78
2019-03-22T17:56:12.724Z,99079.16
2019-03-22T17:58:43.982Z,99084.03
2019-03-22T18:03:42.131Z,99078.75
2019-03-22T18:06:13.168Z,99087.98
2019-03-22T18:08:44.284Z,99084.90
2019-03-22T18:11:15.594Z,99092.50
2019-03-22T18:13:46.650Z,99086.19
2019-03-22T18:16:17.766Z,99094.17
2019-03-22T18:18:49.090Z,99092.67
2019-03-22T18:21:20.312Z,99094.67
2019-03-22T18:23:51.677Z,99092.59
2019-03-22T18:26:22.725Z,99101.91
2019-03-22T18:28:53.912Z,99104.67
2019-03-22T18:31:25.076Z,99107.20
2019-03-22T18:33:56.136Z,99108.71
2019-03-22T18:36:27.266Z,99103.08
2019-03-22T18:38:58.240Z,99107.46
2019-03-22T18:41:29.515Z,99109.13
2019-03-22T18:44:00.413Z,99109.73
2019-03-22T18:46:32.268Z,99102.80
2019-03-22T18:49:03.366Z,99103.11
2019-03-22T18:51:34.777Z,99104.80
2019-03-22T18:54:06.829Z,99105.58
2019-03-22T18:56:38.281Z,99107.76
2019-03-22T18:59:09.306Z,99101.09
2019-03-22T19:01:40.541Z,99101.09
2019-03-22T19:04:11.785Z,99116.50
2019-03-22T19:06:43.288Z,99108.66
2019-03-22T19:09:14.451Z,99112.14
2019-03-22T19:11:46.480Z,99108.91
2019-03-22T19:14:17.679Z,99114.29
2019-03-22T19:16:48.917Z,99111.28
2019-03-22T19:19:20.297Z,99112.60
2019-03-22T19:21:52.600Z,99114.75
2019-03-22T19:24:23.743Z,99110.64
2019-03-22T19:26:54.831Z,99115.73
2019-03-22T19:29:25.997Z,99115.98
2019-03-22T19:31:57.113Z,99120.27
2019-03-22T19:34:28.382Z,99116.72
2019-03-22T19:37:03.316Z,99114.53
2019-03-22T19:39:34.437Z,99107.72
2019-03-22T19:42:05.541Z,99117.40
2019-03-22T19:44:36.659Z,99116.82
2019-03-22T19:47:07.850Z,99118.37
2019-03-22T19:49:38.981Z,99117.48
2019-03-22T19:52:10.306Z,99127.06
2019-03-22T19:54:41.227Z,99128.91
2019-03-22T19:57:12.152Z,99125.61
2019-03-22T19:59:43.318Z,99117.69
2019-03-22T20:02:14.361Z,99117.45
2019-03-22T20:04:46.295Z,99117.39
2019-03-22T20:07:26.515Z,99124.42
2019-03-22T20:09:50.401Z,99127.03
2019-03-22T20:12:21.775Z,99120.75
2019-03-22T20:14:53.458Z,99123.44
2019-03-22T20:17:24.875Z,99129.00
2019-03-22T20:19:56.223Z,99120.87
2019-03-22T20:22:27.418Z,99124.28
2019-03-22T20:24:58.762Z,99122.55
2019-03-22T20:27:29.720Z,99123.54
2019-03-22T20:30:01.044Z,99118.81
2019-03-22T20:32:31.998Z,99121.95
2019-03-22T20:35:03.012Z,99120.02
2019-03-22T20:37:35.188Z,99116.06
2019-03-22T20:40:06.652Z,99123.52
2019-03-22T20:42:37.746Z,99126.88
2019-03-22T20:45:09.282Z,99124.42
2019-03-22T20:47:40.341Z,99127.52
2019-03-22T20:50:12.468Z,99130.61
2019-03-22T20:52:43.347Z,99124.63
2019-03-22T20:55:14.675Z,99128.80
2019-03-22T20:57:45.723Z,99124.20
2019-03-22T21:00:16.926Z,99125.03
2019-03-22T21:02:48.021Z,99117.41
2019-03-22T21:05:26.951Z,99114.20
2019-03-22T21:07:53.409Z,99114.02
2019-03-22T21:10:24.522Z,99122.55
2019-03-22T21:12:55.642Z,99118.78
2019-03-22T21:15:26.685Z,99121.02
2019-03-22T21:17:57.907Z,99129.77
2019-03-22T21:20:29.106Z,99125.31
2019-03-22T21:23:00.699Z,99132.94
2019-03-22T21:25:31.858Z,99134.39
2019-03-22T21:28:03.969Z,99128.95
2019-03-22T21:30:36.308Z,99129.02
2019-03-22T21:33:07.445Z,99131.86
2019-03-22T21:35:38.578Z,99131.02
2019-03-22T21:38:11.128Z,99125.75
2019-03-22T21:40:43.367Z,99127.40
2019-03-22T21:43:14.659Z,99132.66
2019-03-22T21:45:45.823Z,99133.38
2019-03-22T21:48:17.159Z,99123.52
2019-03-22T21:50:48.331Z,99118.62
2019-03-22T21:53:19.385Z,99121.44
2019-03-22T21:55:50.530Z,99118.44
2019-03-22T21:58:22.017Z,99116.47
2019-03-22T22:00:53.153Z,99118.72
2019-03-22T22:03:24.501Z,99119.43
2019-03-22T22:05:55.870Z,99117.34
2019-03-22T22:08:27.313Z,99115.38
2019-03-22T22:10:59.947Z,99124.16
2019-03-22T22:13:31.036Z,99131.14
2019-03-22T22:16:02.128Z,99129.86
2019-03-22T22:18:33.435Z,99127.67
2019-03-22T22:21:04.340Z,99124.99
2019-03-22T22:23:35.497Z,99128.52
2019-03-22T22:26:06.676Z,99125.39
2019-03-22T22:28:37.837Z,99132.46
2019-03-22T22:31:08.887Z,99129.08
2019-03-22T22:33:40.125Z,99127.59
2019-03-22T22:36:10.996Z,99125.37
2019-03-22T22:38:42.431Z,99125.42
2019-03-22T22:41:13.603Z,99132.82
2019-03-22T22:43:44.950Z,99123.63
2019-03-22T22:46:16.033Z,99129.22
2019-03-22T22:48:47.023Z,99127.45
2019-03-22T22:51:18.010Z,99129.45
2019-03-22T22:53:49.208Z,99121.76
2019-03-22T22:56:20.222Z,99128.56
2019-03-22T22:58:51.408Z,99122.98
2019-03-22T23:01:22.989Z,99130.70
2019-03-22T23:03:54.587Z,99129.50
2019-03-22T23:06:25.629Z,99134.20
2019-03-22T23:08:56.694Z,99135.17
2019-03-22T23:11:27.885Z,99141.89
2019-03-22T23:13:58.766Z,99138.22
2019-03-22T23:16:29.702Z,99134.98
2019-03-22T23:19:00.574Z,99127.57
2019-03-22T23:21:31.753Z,99137.09
2019-03-22T23:24:02.887Z,99140.97
2019-03-22T23:26:33.946Z,99137.39
2019-03-22T23:29:04.986Z,99138.69
2019-03-22T23:31:36.081Z,99135.63
2019-03-22T23:34:07.105Z,99140.25
2019-03-22T23:36:37.868Z,99145.39
2019-03-22T23:39:09.600Z,99148.22
2019-03-22T23:41:40.575Z,99144.30
2019-03-22T23:44:11.755Z,99140.81
2019-03-22T23:46:42.898Z,99139.95
2019-03-22T23:49:13.826Z,99138.45
2019-03-22T23:51:44.715Z,99142.30
2019-03-22T23:54:15.743Z,99147.06
2019-03-22T23:56:46.890Z,99150.05
2019-03-22T23:59:17.989Z,99144.98
